Detroit, Michigan
Traffic Map
Current Weather Conditions
Detroit, Michigan
Broken Clouds
Broken Clouds
32°
Feels Like: 33°
Wind Chill: 32° Ceiling: 30000
Heat Index: 33° Visibility: 15mi
Dew Point: 18° Wind: 9mph
Humidity: 43% Direction: 80° (E)
Pressure: 29.94in Gusts: 0mph
Raw Report DataCYQG 232300Z 08008KT 15SM FEW080 BKN300 32/18 A2994 RMK AC1CI7 AC TR SLP135 DENSITY ALT 2600FT
Traffic Incident Summary
Active as of:
Severity:
Category:
InformationThere was an issue retrieving the traffic information for this location. Please try a different location or try again shortly.
Advertisements
Track Severe Weather on mobile